Time;durP1;ratioP1;P1;durP2;ratioP2;P2;SDS_P1;SDS_P2;PMS_P1;PMS_P2;Temp;Humidity;BMP_temperature;BMP_pressure;BME280_temperature;BME280_humidity;BME280_pressure;Samples;Min_cycle;Max_cycle;Signal;HPM_P1;HPM_P2
2022/07/10 00:02:07;;;;;;;2.28;0.77;;;;;;;17.39;68.29;98812.37;4364723;32;20087;-72
2022/07/10 00:04:34;;;;;;;0.70;0.55;;;;;;;17.34;68.75;98812.91;4365062;32;20091;-72
2022/07/10 00:07:02;;;;;;;0.75;0.62;;;;;;;17.36;68.76;98808.25;4364746;32;20119;-72
2022/07/10 00:09:30;;;;;;;1.83;0.75;;;;;;;17.34;68.59;98812.13;4364775;32;20126;-72
2022/07/10 00:11:57;;;;;;;1.25;0.65;;;;;;;17.33;68.57;98813.09;4364537;32;20164;-72
2022/07/10 00:14:24;;;;;;;1.73;0.98;;;;;;;17.24;68.76;98808.88;4364917;32;20134;-72
2022/07/10 00:16:51;;;;;;;1.42;0.60;;;;;;;17.24;68.96;98808.88;4364753;32;20452;-72
2022/07/10 00:19:19;;;;;;;2.95;0.90;;;;;;;17.19;69.27;98804.13;4364504;32;20122;-72
2022/07/10 00:21:47;;;;;;;2.90;0.70;;;;;;;17.17;69.56;98796.37;4364737;32;20095;-72
2022/07/10 00:24:14;;;;;;;2.47;0.80;;;;;;;17.12;70.10;98806.69;4364721;32;20094;-72
2022/07/10 00:26:41;;;;;;;2.75;0.90;;;;;;;17.08;70.54;98809.84;4364488;32;20122;-72
2022/07/10 00:29:08;;;;;;;1.35;0.95;;;;;;;17.01;71.01;98815.84;4364764;32;20137;-72
2022/07/10 00:31:35;;;;;;;3.50;0.80;;;;;;;16.94;71.49;98806.13;4364638;32;20098;-72
2022/07/10 00:34:03;;;;;;;4.50;1.00;;;;;;;16.85;72.29;98808.84;4364759;32;20449;-72
2022/07/10 00:36:30;;;;;;;1.12;1.00;;;;;;;16.85;72.54;98803.53;4363755;32;20428;-72
2022/07/10 00:38:57;;;;;;;1.08;0.75;;;;;;;16.89;72.67;98811.16;4364134;32;20095;-72
2022/07/10 00:41:25;;;;;;;0.60;0.60;;;;;;;16.80;73.28;98803.22;4364525;32;20100;-72
2022/07/10 00:43:53;;;;;;;0.82;0.80;;;;;;;16.75;73.87;98804.78;4364576;32;20145;-72
2022/07/10 00:46:20;;;;;;;2.00;1.00;;;;;;;16.73;74.22;98810.25;4364485;32;20099;-72
2022/07/10 00:48:48;;;;;;;1.15;0.98;;;;;;;16.59;75.04;98801.22;4364441;32;20441;-72
2022/07/10 00:51:17;;;;;;;0.88;0.77;;;;;;;16.68;74.93;98800.19;4358446;32;20099;-72
2022/07/10 00:53:46;;;;;;;2.15;1.10;;;;;;;16.64;75.24;98808.66;4364294;32;20082;-72
2022/07/10 00:56:19;;;;;;;2.75;0.88;;;;;;;16.58;75.77;98799.59;4364251;32;20130;-72
2022/07/10 00:58:47;;;;;;;1.67;1.00;;;;;;;16.53;76.26;98796.63;4364573;32;20587;-72
2022/07/10 01:01:15;;;;;;;1.65;1.02;;;;;;;16.52;76.70;98795.00;4364333;32;20095;-72
2022/07/10 01:03:43;;;;;;;1.02;0.75;;;;;;;16.49;76.90;98798.81;4364425;32;20568;-72
2022/07/10 01:06:10;;;;;;;1.35;1.15;;;;;;;16.45;77.31;98794.88;4364301;32;20118;-72
2022/07/10 01:08:38;;;;;;;1.30;0.95;;;;;;;16.45;77.38;98791.41;4364359;32;20146;-72
2022/07/10 01:11:08;;;;;;;2.65;1.00;;;;;;;16.39;77.74;98787.63;4364267;32;20122;-72
2022/07/10 01:13:35;;;;;;;3.75;0.93;;;;;;;16.34;77.97;98791.81;4350984;32;20104;-72
2022/07/10 01:16:03;;;;;;;1.05;0.88;;;;;;;16.39;78.03;98795.56;4364349;32;20457;-72
2022/07/10 01:18:30;;;;;;;3.00;1.30;;;;;;;16.37;78.16;98792.28;4364121;32;20086;-72
2022/07/10 01:20:57;;;;;;;1.17;1.05;;;;;;;16.32;78.11;98795.44;4364268;32;20119;-72
2022/07/10 01:23:25;;;;;;;1.50;0.80;;;;;;;16.28;78.24;98794.13;4364074;32;20103;-72
2022/07/10 01:25:52;;;;;;;0.90;0.70;;;;;;;16.21;78.59;98793.16;4350809;32;20103;-72
2022/07/10 01:28:20;;;;;;;1.40;0.95;;;;;;;16.25;78.31;98789.19;4364388;32;20125;-72
2022/07/10 01:30:48;;;;;;;1.87;0.82;;;;;;;16.18;78.20;98779.50;4364190;32;20095;-72
2022/07/10 01:33:16;;;;;;;1.62;0.90;;;;;;;16.14;78.07;98776.38;4364375;32;20358;-72
2022/07/10 01:35:43;;;;;;;1.60;0.90;;;;;;;16.08;78.46;98777.06;4364106;32;20099;-72
2022/07/10 01:38:10;;;;;;;1.12;0.98;;;;;;;16.04;78.56;98775.75;4364150;32;20103;-72
2022/07/10 01:40:38;;;;;;;2.65;1.10;;;;;;;15.96;78.82;98769.50;4363911;32;20560;-72
2022/07/10 01:43:05;;;;;;;1.62;1.00;;;;;;;15.89;78.95;98773.81;4364119;32;20083;-72
2022/07/10 01:45:32;;;;;;;1.67;0.90;;;;;;;15.84;79.23;98767.44;4364049;32;20099;-72
2022/07/10 01:47:59;;;;;;;2.20;0.88;;;;;;;15.77;79.54;98764.59;4363594;32;20107;-72
2022/07/10 01:50:27;;;;;;;1.08;0.98;;;;;;;15.74;79.45;98757.81;4364044;32;20095;-72
2022/07/10 01:52:54;;;;;;;2.20;1.00;;;;;;;15.73;79.29;98758.84;4363979;32;20142;-72
2022/07/10 01:55:21;;;;;;;4.90;1.23;;;;;;;15.68;79.54;98747.94;4364039;32;20166;-72
2022/07/10 01:57:48;;;;;;;2.78;0.98;;;;;;;15.65;79.67;98747.47;4363972;32;20121;-72
2022/07/10 02:00:17;;;;;;;1.50;1.10;;;;;;;15.63;79.94;98749.47;4363729;32;20146;-72
2022/07/10 02:04:40;;;;;;;1.30;1.20;;;;;;;15.51;80.56;98746.38;4363821;32;20162;-72
2022/07/10 02:05:31;;;;;;;1.55;1.10;;;;;;;15.55;80.45;98745.03;4363982;32;20153;-72
2022/07/10 02:07:59;;;;;;;1.50;1.20;;;;;;;15.51;80.68;98754.28;4363811;32;20162;-72
2022/07/10 02:10:26;;;;;;;1.52;0.95;;;;;;;15.46;81.06;98752.16;4363851;32;20453;-72
2022/07/10 02:12:53;;;;;;;2.08;1.27;;;;;;;15.38;81.62;98749.53;4363784;32;20118;-72
2022/07/10 02:15:21;;;;;;;1.77;1.48;;;;;;;15.39;81.79;98745.91;4363648;32;20437;-72
2022/07/10 02:17:48;;;;;;;1.75;1.40;;;;;;;15.33;82.23;98752.66;4363592;32;20173;-72
2022/07/10 02:20:15;;;;;;;1.65;1.20;;;;;;;15.32;82.43;98747.56;4363560;32;20164;-72
2022/07/10 02:22:43;;;;;;;4.20;1.45;;;;;;;15.27;82.91;98750.69;4363491;32;20092;-72
2022/07/10 02:25:10;;;;;;;1.55;1.20;;;;;;;15.27;83.23;98742.78;4363560;32;20153;-72
2022/07/10 02:27:37;;;;;;;1.87;1.20;;;;;;;15.20;83.83;98747.91;4363634;32;20121;-72
2022/07/10 02:30:05;;;;;;;1.37;0.95;;;;;;;15.17;84.17;98750.91;4363549;32;20149;-72
2022/07/10 02:32:32;;;;;;;1.62;1.20;;;;;;;15.14;84.63;98753.03;4363564;32;20087;-72
2022/07/10 02:34:59;;;;;;;2.85;1.30;;;;;;;15.12;84.86;98755.00;4363453;32;20095;-72
2022/07/10 02:37:27;;;;;;;1.62;1.35;;;;;;;15.10;85.10;98744.63;4363374;32;20145;-72
2022/07/10 02:39:54;;;;;;;1.08;0.88;;;;;;;15.11;85.34;98748.06;4363327;32;20084;-72
2022/07/10 02:42:21;;;;;;;1.70;1.30;;;;;;;15.00;85.86;98747.41;4363286;32;20174;-72
2022/07/10 02:44:48;;;;;;;2.05;1.30;;;;;;;15.02;85.86;98747.28;4363333;32;20126;-72
2022/07/10 02:47:15;;;;;;;1.65;1.33;;;;;;;14.96;86.50;98740.84;4357229;32;20117;-72
2022/07/10 02:49:43;;;;;;;2.72;1.50;;;;;;;14.97;86.67;98753.03;4349860;32;20190;-72
2022/07/10 02:52:10;;;;;;;1.92;1.42;;;;;;;14.89;87.38;98745.94;4363277;32;20103;-72
2022/07/10 02:54:38;;;;;;;2.20;1.40;;;;;;;14.88;87.48;98749.59;4363187;32;20118;-72
2022/07/10 02:57:05;;;;;;;3.12;1.30;;;;;;;14.80;88.11;98751.41;4363313;32;20095;-72
2022/07/10 02:59:32;;;;;;;1.40;1.20;;;;;;;14.82;88.25;98749.41;4363013;32;20088;-72
2022/07/10 03:02:00;;;;;;;1.67;1.40;;;;;;;14.71;88.98;98743.47;4365178;32;20676;-72
2022/07/10 03:04:28;;;;;;;3.37;1.42;;;;;;;14.70;89.37;98741.84;4365039;32;20396;-72
2022/07/10 03:06:55;;;;;;;2.70;1.65;;;;;;;14.71;89.48;98734.75;4365150;32;20169;-72
2022/07/10 03:09:22;;;;;;;2.90;1.37;;;;;;;14.64;90.10;98739.88;4365167;32;20126;-72
2022/07/10 03:11:49;;;;;;;1.85;1.50;;;;;;;14.69;89.94;98737.53;4365030;32;20175;-72
2022/07/10 03:14:17;;;;;;;4.15;1.70;;;;;;;14.60;90.45;98729.78;4364979;32;20103;-72
2022/07/10 03:16:44;;;;;;;2.25;1.67;;;;;;;14.57;90.90;98736.19;4365075;32;20090;-72
2022/07/10 03:19:11;;;;;;;2.00;1.77;;;;;;;14.58;91.22;98727.31;4365057;32;20605;-72
2022/07/10 03:21:38;;;;;;;3.92;1.80;;;;;;;14.57;91.50;98722.19;4365179;32;20099;-72
2022/07/10 03:24:06;;;;;;;1.65;1.45;;;;;;;14.59;91.41;98722.84;4365002;32;20099;-72
2022/07/10 03:26:33;;;;;;;2.10;1.73;;;;;;;14.55;91.60;98712.63;4365056;32;20150;-72
2022/07/10 03:29:00;;;;;;;2.87;1.90;;;;;;;14.59;91.57;98718.38;4364974;32;20160;-72
2022/07/10 03:31:27;;;;;;;3.03;2.15;;;;;;;14.75;90.72;98716.78;4365020;32;20083;-72
2022/07/10 03:33:54;;;;;;;3.42;1.85;;;;;;;14.87;90.01;98705.75;4364863;32;20091;-72
2022/07/10 03:36:22;;;;;;;2.85;2.10;;;;;;;14.84;90.35;98703.44;4364993;32;20601;-72
2022/07/10 03:38:49;;;;;;;3.00;1.80;;;;;;;14.92;89.86;98705.22;4364971;32;20092;-72
2022/07/10 03:41:16;;;;;;;2.45;1.70;;;;;;;14.98;89.62;98701.12;4364715;32;20162;-72
2022/07/10 03:43:43;;;;;;;2.20;1.92;;;;;;;15.04;89.35;98705.72;4364813;32;20099;-72
2022/07/10 03:46:11;;;;;;;2.78;2.05;;;;;;;15.04;89.52;98701.25;4364894;32;20098;-72
2022/07/10 03:48:38;;;;;;;2.15;1.42;;;;;;;14.99;89.77;98703.59;4364886;32;20095;-72
2022/07/10 03:51:06;;;;;;;2.03;1.80;;;;;;;15.02;90.12;98705.06;4364736;32;20484;-72
2022/07/10 03:53:33;;;;;;;4.20;1.73;;;;;;;15.10;89.97;98706.88;4364855;32;20098;-72
2022/07/10 03:56:00;;;;;;;2.30;1.77;;;;;;;15.12;89.62;98708.34;4364861;32;20099;-72
2022/07/10 03:58:27;;;;;;;2.05;1.60;;;;;;;15.11;89.68;98711.97;4351473;32;20468;-72
2022/07/10 04:00:55;;;;;;;2.55;1.73;;;;;;;15.10;89.45;98707.69;4364696;32;20082;-72
2022/07/10 04:03:22;;;;;;;3.78;1.90;;;;;;;15.17;89.20;98707.81;4364780;32;20233;-72
2022/07/10 04:05:49;;;;;;;2.80;1.80;;;;;;;15.10;89.68;98705.06;4364890;32;20165;-72
2022/07/10 04:08:16;;;;;;;2.30;1.80;;;;;;;15.08;89.56;98699.94;4364749;32;20091;-72
2022/07/10 04:10:43;;;;;;;2.75;2.10;;;;;;;15.08;89.58;98697.31;4364525;32;20087;-72
2022/07/10 04:13:11;;;;;;;2.75;1.92;;;;;;;15.22;88.91;98700.25;4364885;32;20263;-72
2022/07/10 04:15:38;;;;;;;2.05;1.52;;;;;;;15.26;88.51;98698.91;4364746;32;20453;-72
2022/07/10 04:18:05;;;;;;;4.37;1.92;;;;;;;15.33;88.22;98705.16;4364411;32;20411;-72
2022/07/10 04:20:32;;;;;;;1.90;1.65;;;;;;;15.61;87.00;98707.41;4364564;32;20096;-72
2022/07/10 04:22:59;;;;;;;2.35;1.67;;;;;;;15.72;86.54;98701.72;4364689;32;20118;-72
2022/07/10 04:25:27;;;;;;;1.98;1.45;;;;;;;15.62;86.85;98703.75;4364680;32;20099;-72
2022/07/10 04:27:54;;;;;;;2.00;1.62;;;;;;;15.79;86.10;98705.34;4364533;32;20083;-72
2022/07/10 04:30:21;;;;;;;4.15;1.90;;;;;;;15.86;85.46;98702.03;4364580;32;20110;-72
2022/07/10 04:32:48;;;;;;;3.20;1.60;;;;;;;15.84;85.73;98709.31;4364663;32;20137;-72
2022/07/10 04:35:15;;;;;;;2.78;2.22;;;;;;;16.01;84.94;98689.72;4358584;32;20094;-72
2022/07/10 04:37:43;;;;;;;3.03;1.87;;;;;;;16.25;83.62;98693.22;4364470;32;20095;-72
2022/07/10 04:40:10;;;;;;;2.05;1.80;;;;;;;16.22;83.35;98690.94;4364499;32;20144;-72
2022/07/10 04:42:37;;;;;;;3.47;1.90;;;;;;;16.11;83.85;98690.31;4364523;32;20091;-72
2022/07/10 04:45:05;;;;;;;1.77;1.60;;;;;;;16.13;84.17;98690.16;4364610;32;20472;-72
2022/07/10 04:47:33;;;;;;;3.40;1.77;;;;;;;16.14;83.99;98687.34;4364540;32;20091;-72
2022/07/10 04:50:00;;;;;;;2.67;2.10;;;;;;;16.23;83.66;98681.97;4364390;32;20510;-72
2022/07/10 04:52:27;;;;;;;2.35;1.80;;;;;;;16.27;83.18;98676.16;4364469;32;20106;-72
2022/07/10 04:54:55;;;;;;;1.92;1.73;;;;;;;16.35;82.79;98674.47;4364419;32;20091;-72
2022/07/10 04:57:22;;;;;;;3.85;1.87;;;;;;;16.42;82.47;98673.59;4364422;32;20114;-72
2022/07/10 04:59:49;;;;;;;3.67;2.03;;;;;;;16.56;81.76;98669.34;4364326;32;20162;-72
2022/07/10 05:02:17;;;;;;;2.67;1.87;;;;;;;16.61;81.62;98674.13;4364319;32;20170;-72
2022/07/10 05:04:44;;;;;;;2.55;1.80;;;;;;;16.73;81.29;98674.50;4364588;32;20094;-72
2022/07/10 05:07:11;;;;;;;2.00;1.80;;;;;;;16.70;81.12;98683.63;4364473;32;20446;-72
2022/07/10 05:09:39;;;;;;;4.72;1.98;;;;;;;16.72;81.24;98684.25;4364271;32;20099;-72
2022/07/10 05:12:06;;;;;;;3.15;2.17;;;;;;;16.85;80.53;98689.75;4364353;32;20099;-72
2022/07/10 05:14:33;;;;;;;2.70;1.80;;;;;;;16.91;79.71;98688.25;4364302;32;20449;-72
2022/07/10 05:17:01;;;;;;;2.42;2.00;;;;;;;16.99;79.50;98687.38;4364192;32;20103;-72
2022/07/10 05:19:28;;;;;;;2.97;1.73;;;;;;;17.17;78.33;98690.47;4364304;32;20125;-72
2022/07/10 05:21:55;;;;;;;2.20;1.95;;;;;;;17.19;78.48;98680.53;4364095;32;20125;-72
2022/07/10 05:24:23;;;;;;;2.33;1.70;;;;;;;17.34;77.12;98690.31;4363640;32;20480;-72
2022/07/10 05:26:50;;;;;;;2.72;2.10;;;;;;;17.54;76.63;98682.63;4364084;32;20082;-72
2022/07/10 05:29:17;;;;;;;2.20;1.62;;;;;;;17.63;75.67;98681.50;4364174;32;20158;-72
2022/07/10 05:31:45;;;;;;;2.35;1.80;;;;;;;17.65;75.03;98674.22;4364244;32;20091;-72
2022/07/10 05:34:12;;;;;;;3.20;1.65;;;;;;;17.78;74.55;98676.19;4364283;32;20504;-72
2022/07/10 05:36:39;;;;;;;3.30;1.85;;;;;;;17.70;74.47;98673.66;4364396;32;20095;-72
2022/07/10 05:39:06;;;;;;;5.72;2.12;;;;;;;17.69;74.47;98672.81;4364280;32;20095;-72
2022/07/10 05:41:33;;;;;;;4.47;2.00;;;;;;;17.70;74.10;98677.13;4363984;32;20413;-72
2022/07/10 05:44:00;;;;;;;3.12;2.50;;;;;;;17.61;74.29;98675.59;4364176;32;20107;-72
2022/07/10 05:46:28;;;;;;;2.70;2.10;;;;;;;17.65;74.53;98673.38;4338432;32;20095;-72
2022/07/10 05:48:55;;;;;;;3.05;1.80;;;;;;;17.77;74.16;98677.19;4364129;32;20109;-72
2022/07/10 05:51:22;;;;;;;3.17;2.00;;;;;;;18.05;73.04;98677.34;4364130;32;20098;-72
2022/07/10 05:54:05;;;;;;;2.12;1.75;;;;;;;18.18;72.78;98674.03;4364112;32;20091;-72
2022/07/10 05:56:32;;;;;;;2.50;2.00;;;;;;;18.27;71.57;98666.75;4363947;32;20106;-72
2022/07/10 05:58:59;;;;;;;2.60;1.95;;;;;;;18.13;72.23;98660.50;4363958;32;20087;-72
2022/07/10 06:01:27;;;;;;;4.28;1.80;;;;;;;17.95;72.87;98671.50;4363797;32;20129;-72
2022/07/10 06:03:54;;;;;;;2.50;1.95;;;;;;;17.97;72.82;98672.16;4363917;32;20122;-72
2022/07/10 06:06:21;;;;;;;1.83;1.60;;;;;;;17.87;72.78;98672.41;4363989;32;20109;-72
2022/07/10 06:08:48;;;;;;;2.90;2.28;;;;;;;17.88;72.77;98674.06;4363866;32;20125;-72
2022/07/10 06:11:16;;;;;;;3.75;2.10;;;;;;;18.05;72.18;98674.69;4364000;32;20137;-72
2022/07/10 06:13:43;;;;;;;2.17;1.75;;;;;;;18.07;71.81;98671.84;4363764;32;20441;-72
2022/07/10 06:16:10;;;;;;;5.75;2.12;;;;;;;18.10;71.97;98671.47;4363839;32;20164;-72
2022/07/10 06:18:38;;;;;;;2.25;1.90;;;;;;;18.27;70.93;98667.59;4363795;32;20114;-72
2022/07/10 06:21:05;;;;;;;3.72;2.22;;;;;;;18.17;71.22;98674.19;4363826;32;20433;-72
2022/07/10 06:23:32;;;;;;;5.12;2.25;;;;;;;18.29;70.89;98659.44;4363915;32;20091;-72
2022/07/10 06:26:00;;;;;;;3.35;1.85;;;;;;;18.26;71.02;98665.13;4363580;32;20086;-72
2022/07/10 06:28:27;;;;;;;3.20;2.03;;;;;;;18.41;70.45;98665.03;4363551;32;20079;-72
2022/07/10 06:30:54;;;;;;;2.12;1.85;;;;;;;18.68;69.31;98676.69;4363523;32;20094;-72
2022/07/10 06:33:27;;;;;;;2.78;1.80;;;;;;;18.64;69.04;98672.81;4363637;32;20158;-72
2022/07/10 06:35:54;;;;;;;4.50;1.80;;;;;;;18.69;69.18;98681.00;4365044;32;20152;-72
2022/07/10 06:38:21;;;;;;;2.85;2.20;;;;;;;18.72;68.59;98683.25;4365301;32;20504;-72
2022/07/10 06:40:49;;;;;;;3.30;1.80;;;;;;;18.83;68.12;98675.78;4365122;32;20126;-72
2022/07/10 06:43:16;;;;;;;3.78;1.73;;;;;;;18.87;68.48;98682.41;4339624;32;20091;-72
2022/07/10 06:45:44;;;;;;;3.65;1.87;;;;;;;18.85;67.78;98676.41;4365270;32;20154;-72
2022/07/10 06:48:11;;;;;;;3.65;2.33;;;;;;;19.18;66.76;98676.66;4365206;32;20369;-72
2022/07/10 06:50:38;;;;;;;3.70;1.87;;;;;;;19.35;65.50;98684.31;4365370;32;20118;-72
2022/07/10 06:53:05;;;;;;;2.08;1.77;;;;;;;19.43;64.71;98684.19;4365313;32;20099;-72
2022/07/10 06:55:33;;;;;;;2.00;1.80;;;;;;;19.31;65.35;98682.06;4365297;32;20130;-72
2022/07/10 06:58:01;;;;;;;3.12;1.92;;;;;;;19.40;64.56;98682.72;4365195;32;20146;-72
2022/07/10 07:00:28;;;;;;;3.25;1.75;;;;;;;19.42;64.02;98682.53;4365094;32;20111;-72
2022/07/10 07:02:56;;;;;;;2.65;2.17;;;;;;;19.37;65.07;98682.31;4365530;32;20121;-72
2022/07/10 07:05:23;;;;;;;2.65;1.60;;;;;;;19.28;64.71;98679.81;4365134;32;20095;-72
2022/07/10 07:07:50;;;;;;;4.03;1.60;;;;;;;19.42;64.62;98680.69;4365114;32;20153;-72
2022/07/10 07:10:18;;;;;;;4.32;1.90;;;;;;;19.49;63.68;98686.88;4365089;32;20099;-72
2022/07/10 07:12:45;;;;;;;3.85;1.60;;;;;;;19.72;61.64;98675.09;4351765;32;20174;-72
2022/07/10 07:15:12;;;;;;;1.58;1.37;;;;;;;19.62;60.55;98672.84;4365266;32;20121;-72
2022/07/10 07:23:12;;;;;;;1.95;1.60;;;;;;;19.80;57.99;98668.81;4365018;32;20154;-72
2022/07/10 07:25:41;;;;;;;2.37;1.20;;;;;;;19.79;57.69;98676.00;4365176;32;20078;-72
2022/07/10 07:28:10;;;;;;;3.33;1.40;;;;;;;20.06;57.50;98686.72;4351911;32;20105;-72
2022/07/10 07:30:38;;;;;;;2.70;1.05;;;;;;;20.35;55.15;98677.56;4365333;32;20099;-72
2022/07/10 07:33:05;;;;;;;1.45;1.20;;;;;;;20.53;53.88;98676.13;4364972;32;20482;-72
2022/07/10 07:35:33;;;;;;;1.45;1.23;;;;;;;20.65;54.00;98677.22;4364977;32;20113;-72
2022/07/10 07:38:01;;;;;;;4.45;1.35;;;;;;;20.52;54.60;98677.97;4364979;32;20437;-72
2022/07/10 07:40:29;;;;;;;2.50;1.30;;;;;;;20.56;54.36;98683.72;4364928;32;20108;-72
2022/07/10 07:42:56;;;;;;;2.12;1.25;;;;;;;20.75;53.25;98679.44;4364917;32;20453;-72
2022/07/10 07:45:24;;;;;;;1.90;1.50;;;;;;;20.34;54.25;98689.22;4364893;32;20113;-72
2022/07/10 07:47:56;;;;;;;3.10;1.40;;;;;;;20.47;54.67;98695.56;4364535;32;20083;-72
2022/07/10 07:50:42;;;;;;;1.80;1.20;;;;;;;20.69;54.43;98702.38;4364981;32;20410;-72
2022/07/10 07:53:09;;;;;;;1.87;1.27;;;;;;;20.99;54.42;98685.19;4364729;32;20113;-72
2022/07/10 07:55:37;;;;;;;1.10;0.90;;;;;;;21.37;50.60;98687.97;4364665;32;20148;-72
2022/07/10 07:58:04;;;;;;;3.20;1.65;;;;;;;21.66;50.35;98675.19;4364908;32;20109;-72
2022/07/10 08:00:32;;;;;;;1.92;1.30;;;;;;;21.68;51.34;98672.31;4364950;32;20550;-72
2022/07/10 08:03:00;;;;;;;1.70;1.37;;;;;;;21.94;50.21;98671.38;4364739;32;20481;-72
2022/07/10 08:05:28;;;;;;;2.28;1.45;;;;;;;21.89;50.29;98684.53;4364808;32;20091;-72
2022/07/10 08:07:58;;;;;;;1.30;1.20;;;;;;;22.18;49.58;98677.81;4364692;32;20425;-72
2022/07/10 08:10:28;;;;;;;2.47;1.37;;;;;;;22.21;49.54;98679.22;4364694;32;20437;-72
2022/07/10 08:12:55;;;;;;;2.90;1.10;;;;;;;22.18;48.20;98677.81;4364808;32;20161;-72
2022/07/10 08:15:23;;;;;;;2.62;0.93;;;;;;;22.43;47.14;98680.53;4364873;32;20087;-72
2022/07/10 08:17:52;;;;;;;1.85;1.33;;;;;;;22.37;46.04;98680.59;4364381;32;20480;-72
2022/07/10 08:20:20;;;;;;;2.45;1.23;;;;;;;22.13;47.16;98681.13;4364724;32;20257;-72
2022/07/10 08:22:48;;;;;;;3.67;1.45;;;;;;;22.21;46.90;98689.87;4364748;32;20539;-72
2022/07/10 08:25:22;;;;;;;1.83;1.37;;;;;;;21.88;48.36;98674.91;4364771;32;20079;-72
2022/07/10 08:27:49;;;;;;;2.25;1.58;;;;;;;21.93;48.72;98686.56;4364586;32;20125;-72
2022/07/10 08:30:17;;;;;;;2.67;1.73;;;;;;;21.82;48.77;98683.72;4358782;32;20107;-72
2022/07/10 08:32:44;;;;;;;2.00;1.30;;;;;;;21.70;48.20;98681.75;4364579;32;20091;-72
2022/07/10 08:35:13;;;;;;;1.50;1.37;;;;;;;21.39;48.99;98679.75;4364956;32;20079;-72
2022/07/10 08:37:41;;;;;;;2.62;1.20;;;;;;;22.04;48.35;98685.06;4364453;32;20095;-72
2022/07/10 08:40:10;;;;;;;2.62;1.35;;;;;;;21.80;47.44;98682.13;4364529;32;20162;-72
2022/07/10 08:42:37;;;;;;;3.62;1.02;;;;;;;21.89;46.90;98663.19;4364565;32;20161;-72
2022/07/10 08:45:05;;;;;;;2.37;1.15;;;;;;;22.05;45.95;98676.03;4364572;32;20083;-72
2022/07/10 08:47:38;;;;;;;1.17;1.08;;;;;;;21.86;45.90;98671.62;4351217;32;20106;-72
2022/07/10 08:50:20;;;;;;;2.85;1.20;;;;;;;22.31;44.13;98675.06;4364551;32;20094;-72
2022/07/10 08:52:55;;;;;;;2.58;1.10;;;;;;;22.00;45.24;98662.53;4364519;32;20141;-72
2022/07/10 08:55:26;;;;;;;1.65;0.75;;;;;;;22.10;44.01;98675.37;4364605;32;20079;-72
2022/07/10 08:57:55;;;;;;;2.05;0.80;;;;;;;22.06;42.81;98677.69;4363393;32;20425;-72
2022/07/10 09:00:23;;;;;;;1.08;0.93;;;;;;;22.33;42.41;98665.00;4364504;32;20118;-72
2022/07/10 09:02:50;;;;;;;1.15;1.00;;;;;;;22.76;42.14;98668.78;4364188;32;20125;-72
2022/07/10 09:05:19;;;;;;;4.18;1.08;;;;;;;22.58;43.68;98664.22;4351212;32;20138;-73
2022/07/10 09:07:46;;;;;;;1.35;0.82;;;;;;;21.88;44.79;98677.56;4364350;32;20149;-72
2022/07/10 09:10:13;;;;;;;1.45;1.10;;;;;;;21.49;45.10;98658.00;4364567;32;20162;-72
2022/07/10 09:13:07;;;;;;;6.50;1.00;;;;;;;21.92;45.60;98665.44;4364385;32;20090;-72
2022/07/10 09:15:34;;;;;;;0.98;0.85;;;;;;;22.13;43.80;98664.28;4362656;32;20385;-72
2022/07/10 09:18:26;;;;;;;4.32;1.00;;;;;;;22.45;43.10;98665.13;4522782;31;164369;-72
2022/07/10 09:20:54;;;;;;;2.05;0.93;;;;;;;22.38;43.04;98661.69;4513038;31;20106;-72
2022/07/10 09:23:22;;;;;;;4.03;0.70;;;;;;;22.34;44.22;98668.50;4512936;31;20121;-71
2022/07/10 09:25:52;;;;;;;1.27;0.90;;;;;;;22.64;43.74;98665.19;4513250;31;20115;-72
2022/07/10 09:28:21;;;;;;;2.50;0.90;;;;;;;22.73;41.56;98668.41;4512893;31;20135;-72
2022/07/10 09:30:49;;;;;;;1.10;0.93;;;;;;;22.42;43.29;98676.25;4512891;31;20118;-72
2022/07/10 09:33:30;;;;;;;2.47;1.08;;;;;;;22.49;43.29;98670.84;4513012;31;20096;-72
2022/07/10 09:36:10;;;;;;;3.15;1.05;;;;;;;22.41;44.03;98658.59;4511877;31;20155;-72
2022/07/10 09:38:43;;;;;;;2.05;0.90;;;;;;;22.54;44.91;98657.66;4512915;31;20111;-72
2022/07/10 09:41:17;;;;;;;1.20;1.10;;;;;;;22.72;45.11;98656.91;4512639;31;20079;-72
2022/07/10 09:43:52;;;;;;;1.08;1.02;;;;;;;22.83;43.88;98658.87;4512505;31;20456;-72
2022/07/10 09:46:22;;;;;;;2.30;1.08;;;;;;;22.71;44.60;98670.47;4512873;31;20080;-72
2022/07/10 09:49:09;;;;;;;1.87;1.10;;;;;;;22.75;44.68;98661.00;4512619;31;20095;-72
2022/07/10 09:51:45;;;;;;;2.00;1.17;;;;;;;22.61;45.12;98654.94;4512653;31;20087;-72
2022/07/10 09:54:15;;;;;;;1.30;0.80;;;;;;;22.53;44.31;98661.38;4512617;31;20132;-72
2022/07/10 09:56:47;;;;;;;0.80;0.80;;;;;;;22.30;43.99;98660.09;4512555;31;20119;-72
2022/07/10 09:59:16;;;;;;;2.67;0.90;;;;;;;22.41;43.67;98661.25;4512575;31;20107;-72
2022/07/10 10:01:50;;;;;;;1.25;0.77;;;;;;;22.87;43.49;98641.34;4512772;31;20092;-72
2022/07/10 10:04:24;;;;;;;1.15;0.98;;;;;;;22.97;43.08;98648.06;4512675;31;20075;-72
2022/07/10 10:06:53;;;;;;;3.78;0.70;;;;;;;22.68;43.53;98648.53;4512737;31;20162;-72
2022/07/10 10:09:26;;;;;;;0.73;0.70;;;;;;;22.75;39.03;98647.62;4512620;31;20104;-72
2022/07/10 10:12:00;;;;;;;0.82;0.73;;;;;;;22.94;39.99;98645.84;4510783;31;20587;-72
2022/07/10 10:14:28;;;;;;;2.00;0.60;;;;;;;22.95;39.60;98642.09;4511260;31;20107;-72
2022/07/10 10:16:56;;;;;;;1.25;0.80;;;;;;;23.14;39.84;98629.63;4511650;31;20437;-71
2022/07/10 10:22:16;;;;;;;2.03;0.80;;;;;;;23.28;39.83;98622.25;4512317;31;20144;-72
2022/07/10 10:24:43;;;;;;;0.55;0.55;;;;;;;22.72;39.05;98613.37;4512115;31;20505;-72
2022/07/10 10:27:11;;;;;;;1.85;0.80;;;;;;;22.49;39.74;98626.28;4511184;31;20496;-72
2022/07/10 10:29:38;;;;;;;0.93;0.60;;;;;;;22.90;39.63;98623.25;4501403;31;20163;-72
2022/07/10 10:32:07;;;;;;;1.00;0.68;;;;;;;23.53;39.15;98628.34;4500594;31;20108;-72
2022/07/10 10:34:43;;;;;;;2.30;0.70;;;;;;;23.75;39.18;98635.88;4500492;31;20096;-72
2022/07/10 10:37:39;;;;;;;3.15;0.68;;;;;;;23.65;38.79;98616.88;4501879;31;20169;-72
2022/07/10 10:40:09;;;;;;;1.27;0.90;;;;;;;23.97;37.79;98627.38;4501648;31;20092;-72
2022/07/10 10:42:41;;;;;;;0.88;0.80;;;;;;;23.72;39.24;98618.44;4501590;31;20423;-72
2022/07/10 10:45:31;;;;;;;0.70;0.70;;;;;;;23.84;38.94;98626.47;4502086;31;20118;-72
2022/07/10 10:48:05;;;;;;;1.00;0.90;;;;;;;24.00;38.55;98592.16;4501670;31;20080;-72
2022/07/10 10:50:53;;;;;;;1.83;0.80;;;;;;;23.81;40.25;98612.75;4501505;31;20622;-72
2022/07/10 10:53:28;;;;;;;3.15;0.80;;;;;;;22.71;42.59;98619.72;4500283;31;20135;-72
2022/07/10 10:56:04;;;;;;;1.52;0.75;;;;;;;22.84;42.88;98617.75;4501679;31;20092;-72
2022/07/10 10:58:40;;;;;;;2.25;0.90;;;;;;;23.23;41.63;98612.25;4501388;31;20368;-72
2022/07/10 11:01:21;;;;;;;0.80;0.70;;;;;;;23.37;41.03;98607.56;4501749;31;20088;-72
2022/07/10 11:04:04;;;;;;;3.87;0.90;;;;;;;23.15;40.80;98617.88;4501498;31;20118;-72
2022/07/10 11:06:40;;;;;;;2.33;0.65;;;;;;;23.44;37.81;98594.09;4501873;31;20134;-72
2022/07/10 11:09:30;;;;;;;2.60;0.80;;;;;;;23.78;38.12;98597.97;4501576;31;20083;-72
2022/07/10 11:11:59;;;;;;;1.42;0.80;;;;;;;23.78;36.84;98597.97;4493888;31;20343;-72
2022/07/10 11:14:28;;;;;;;1.45;0.52;;;;;;;23.70;36.46;98591.09;4501501;31;20118;-72
2022/07/10 11:16:55;;;;;;;1.48;0.70;;;;;;;24.06;36.29;98596.59;4501691;31;20100;-71
2022/07/10 11:19:28;;;;;;;0.90;0.60;;;;;;;23.99;36.73;98595.88;4501522;31;20152;-72
2022/07/10 11:22:20;;;;;;;2.22;0.70;;;;;;;24.18;37.19;98591.22;4500285;31;20157;-72
2022/07/10 11:25:30;;;;;;;6.32;1.00;;;;;;;24.07;38.67;98611.56;4501342;31;20483;-72
2022/07/10 11:28:21;;;;;;;1.30;0.85;;;;;;;23.02;40.80;98618.81;4493690;31;20179;-72
2022/07/10 11:30:51;;;;;;;1.70;0.65;;;;;;;22.39;40.74;98630.47;4501397;31;20095;-72
2022/07/10 11:33:20;;;;;;;3.97;1.40;;;;;;;21.87;42.51;98626.06;4501383;31;20168;-72
2022/07/10 11:35:50;;;;;;;4.90;0.93;;;;;;;21.42;44.01;98648.19;4501351;31;20100;-72
2022/07/10 11:38:25;;;;;;;2.05;0.73;;;;;;;21.35;44.86;98638.59;4501545;31;20084;-72
2022/07/10 11:40:54;;;;;;;2.28;0.70;;;;;;;21.37;43.47;98629.34;4498652;31;20669;-72
2022/07/10 11:43:25;;;;;;;0.85;0.85;;;;;;;21.59;44.59;98642.41;4501304;31;20119;-72
2022/07/10 11:45:59;;;;;;;1.27;1.05;;;;;;;21.30;47.90;98627.72;4501320;31;20088;-72
2022/07/10 11:48:27;;;;;;;1.85;0.90;;;;;;;21.04;49.40;98637.44;4501389;31;20096;-72
2022/07/10 11:50:54;;;;;;;5.45;1.00;;;;;;;21.19;49.53;98637.19;4501242;31;20123;-72
2022/07/10 11:53:25;;;;;;;1.23;1.05;;;;;;;21.12;48.93;98628.37;4501128;31;20156;-72